createdAt,value
2022-09-23T00:00:24.548Z,4.70
2022-09-23T00:02:54.295Z,4.40
2022-09-23T00:05:26.688Z,4.32
2022-09-23T00:07:56.783Z,4.30
2022-09-23T00:10:28.481Z,4.40
2022-09-23T00:12:58.528Z,5.07
2022-09-23T00:15:31.053Z,4.63
2022-09-23T00:18:00.881Z,4.20
2022-09-23T00:20:33.284Z,4.57
2022-09-23T00:23:02.997Z,4.35
2022-09-23T00:25:32.786Z,3.75
2022-09-23T00:28:03.245Z,4.00
2022-09-23T00:30:33.105Z,4.15
2022-09-23T00:33:02.877Z,4.18
2022-09-23T00:35:35.203Z,4.15
2022-09-23T00:38:04.951Z,4.35
2022-09-23T00:40:36.310Z,4.53
2022-09-23T00:43:06.210Z,4.78
2022-09-23T00:45:36.542Z,4.28
2022-09-23T00:48:06.881Z,4.43
2022-09-23T00:50:43.576Z,4.32
2022-09-23T00:53:16.421Z,5.10
2022-09-23T00:55:51.510Z,4.47
2022-09-23T00:58:28.005Z,4.85
2022-09-23T01:01:00.091Z,4.80
2022-09-23T01:03:30.153Z,4.85
2022-09-23T01:06:02.833Z,4.72
2022-09-23T01:08:32.761Z,4.70
2022-09-23T01:11:14.383Z,5.25
2022-09-23T01:13:54.731Z,5.80
2022-09-23T01:16:33.430Z,5.97
2022-09-23T01:19:09.338Z,5.25
2022-09-23T01:21:49.831Z,5.68
2022-09-23T01:24:40.408Z,6.93
2022-09-23T01:27:35.426Z,6.68
2022-09-23T01:30:21.413Z,7.43
2022-09-23T01:33:10.828Z,6.85
2022-09-23T01:36:01.480Z,8.18
2022-09-23T01:38:40.240Z,7.55
2022-09-23T01:41:19.748Z,7.82
2022-09-23T01:43:55.837Z,7.72
2022-09-23T01:46:30.576Z,8.63
2022-09-23T01:49:10.539Z,9.07
2022-09-23T01:51:44.762Z,8.50
2022-09-23T01:54:18.604Z,7.82
2022-09-23T01:56:54.158Z,7.43
2022-09-23T01:59:29.024Z,8.07
2022-09-23T02:02:04.226Z,9.10
2022-09-23T02:04:45.084Z,8.20
2022-09-23T02:07:20.544Z,8.93
2022-09-23T02:09:57.225Z,8.57
2022-09-23T02:12:30.279Z,9.68
2022-09-23T02:15:05.274Z,9.93
2022-09-23T02:17:39.668Z,10.25
2022-09-23T02:20:15.837Z,9.20
2022-09-23T02:22:54.962Z,10.57
2022-09-23T02:25:28.594Z,10.10
2022-09-23T02:28:04.254Z,10.03
2022-09-23T02:30:39.499Z,10.15
2022-09-23T02:33:13.720Z,10.55
2022-09-23T02:35:55.262Z,10.27
2022-09-23T02:38:33.820Z,9.77
2022-09-23T02:41:10.193Z,9.57
2022-09-23T02:43:45.890Z,10.05
2022-09-23T02:46:15.993Z,9.40
2022-09-23T02:48:49.017Z,9.40
2022-09-23T02:51:21.459Z,9.05
2022-09-23T02:53:52.083Z,8.75
2022-09-23T02:56:23.151Z,9.20
2022-09-23T02:58:55.522Z,8.65
2022-09-23T03:01:39.243Z,8.98
2022-09-23T03:04:16.149Z,8.10
2022-09-23T03:07:00.793Z,8.65
2022-09-23T03:09:35.039Z,8.13
2022-09-23T03:12:14.332Z,8.07
2022-09-23T03:14:53.559Z,8.48
2022-09-23T03:17:29.839Z,7.90
2022-09-23T03:20:04.469Z,7.63
2022-09-23T03:25:14.041Z,7.55
2022-09-23T03:27:45.604Z,8.35
2022-09-23T03:30:16.737Z,7.45
2022-09-23T03:32:49.773Z,8.07
2022-09-23T03:35:20.258Z,7.93
2022-09-23T03:37:58.182Z,7.50
2022-09-23T03:40:32.671Z,7.80
2022-09-23T03:45:36.595Z,7.93
2022-09-23T03:48:07.167Z,7.85
2022-09-23T03:50:37.287Z,7.93
2022-09-23T03:53:09.621Z,7.18
2022-09-23T03:55:40.586Z,8.05
2022-09-23T03:58:11.263Z,7.63
2022-09-23T04:00:41.179Z,7.70
2022-09-23T04:03:11.921Z,8.02
2022-09-23T04:05:43.020Z,8.25
2022-09-23T04:08:15.315Z,7.43
2022-09-23T04:10:46.858Z,8.60
2022-09-23T04:13:17.181Z,7.82
2022-09-23T04:15:46.897Z,7.88
2022-09-23T04:18:16.604Z,8.35
2022-09-23T04:20:46.386Z,7.85
2022-09-23T04:23:18.696Z,7.40
2022-09-23T04:25:48.807Z,7.20
2022-09-23T04:28:18.637Z,7.18
2022-09-23T04:30:49.053Z,7.35
2022-09-23T04:33:19.371Z,7.70
2022-09-23T04:35:53.319Z,7.28
2022-09-23T04:38:25.662Z,7.32
2022-09-23T04:40:55.502Z,7.22
2022-09-23T04:43:25.768Z,6.95
2022-09-23T04:46:03.147Z,7.10
2022-09-23T04:48:33.330Z,6.82
2022-09-23T04:51:06.151Z,6.82
2022-09-23T04:53:39.492Z,7.85
2022-09-23T04:56:12.226Z,7.15
2022-09-23T04:58:43.301Z,7.32
2022-09-23T05:01:14.691Z,7.90
2022-09-23T05:03:45.784Z,7.63
2022-09-23T05:06:17.276Z,7.05
2022-09-23T05:08:54.303Z,6.95
2022-09-23T05:11:25.440Z,7.68
2022-09-23T05:13:57.022Z,7.45
2022-09-23T05:16:27.540Z,7.05
2022-09-23T05:18:58.083Z,7.57
2022-09-23T05:21:30.235Z,8.00
2022-09-23T05:24:02.820Z,8.07
2022-09-23T05:26:34.381Z,8.30
2022-09-23T05:29:04.127Z,8.13
2022-09-23T05:31:34.242Z,9.07
2022-09-23T05:34:05.582Z,9.68
2022-09-23T05:36:38.766Z,8.85
2022-09-23T05:39:11.634Z,9.03
2022-09-23T05:41:43.449Z,7.82
2022-09-23T05:44:13.182Z,7.65
2022-09-23T05:46:43.003Z,8.35
2022-09-23T05:49:12.801Z,7.90
2022-09-23T05:51:42.569Z,8.10
2022-09-23T05:54:14.989Z,7.32
2022-09-23T05:56:45.279Z,8.10
2022-09-23T05:59:15.032Z,7.70
2022-09-23T06:01:46.493Z,7.78
2022-09-23T06:04:17.099Z,6.53
2022-09-23T06:06:46.869Z,7.50
2022-09-23T06:09:21.592Z,7.47
2022-09-23T06:11:51.337Z,6.72
2022-09-23T06:14:21.414Z,7.68
2022-09-23T06:16:51.158Z,7.38
2022-09-23T06:19:22.471Z,7.32
2022-09-23T06:21:52.393Z,6.32
2022-09-23T06:24:30.201Z,7.35
2022-09-23T06:27:01.024Z,7.00
2022-09-23T06:29:32.088Z,7.00
2022-09-23T06:32:02.241Z,6.65
2022-09-23T06:34:41.858Z,7.78
2022-09-23T06:37:19.985Z,6.05
2022-09-23T06:39:54.823Z,6.53
2022-09-23T06:42:24.561Z,5.85
2022-09-23T06:44:54.304Z,6.28
2022-09-23T06:47:24.012Z,6.95
2022-09-23T06:49:53.781Z,6.00
2022-09-23T06:52:23.760Z,6.65
2022-09-23T06:54:56.834Z,6.20
2022-09-23T06:57:27.038Z,5.75
2022-09-23T06:59:58.405Z,6.15
2022-09-23T07:02:28.445Z,6.07
2022-09-23T07:04:58.644Z,6.68
2022-09-23T07:07:29.439Z,6.18
2022-09-23T07:10:01.770Z,5.65
2022-09-23T07:12:31.546Z,6.75
2022-09-23T07:15:01.326Z,6.57
2022-09-23T07:17:31.119Z,8.65
2022-09-23T07:20:00.886Z,6.47
2022-09-23T07:22:30.662Z,6.35
2022-09-23T07:25:02.945Z,5.80
2022-09-23T07:27:33.415Z,6.15
2022-09-23T07:30:03.176Z,6.22
2022-09-23T07:32:43.505Z,6.47
2022-09-23T07:35:14.413Z,14.80
2022-09-23T07:37:45.028Z,6.57
2022-09-23T07:40:17.420Z,5.78
2022-09-23T07:42:47.905Z,6.00
2022-09-23T07:45:18.204Z,5.68
2022-09-23T07:47:48.877Z,6.00
2022-09-23T07:50:19.074Z,5.65
2022-09-23T07:52:49.182Z,5.93
2022-09-23T07:55:22.358Z,8.82
2022-09-23T07:57:52.226Z,6.35
2022-09-23T08:00:22.089Z,5.55
2022-09-23T08:02:53.083Z,5.70
2022-09-23T08:05:23.043Z,5.25
2022-09-23T08:07:52.788Z,5.40
2022-09-23T08:10:31.042Z,5.22
2022-09-23T08:13:02.315Z,5.05
2022-09-23T08:15:32.725Z,5.18
2022-09-23T08:18:03.122Z,5.07
2022-09-23T08:20:48.311Z,4.88
2022-09-23T08:23:21.044Z,4.70
2022-09-23T08:26:00.114Z,4.68
2022-09-23T08:28:33.827Z,4.93
2022-09-23T08:31:03.897Z,5.00
2022-09-23T08:33:34.023Z,4.65
2022-09-23T08:36:05.230Z,4.50
2022-09-23T08:38:35.211Z,4.80
2022-09-23T08:41:16.296Z,4.30
2022-09-23T08:43:51.274Z,12.73
2022-09-23T08:46:26.098Z,4.18
2022-09-23T08:48:57.714Z,4.50
2022-09-23T08:51:34.129Z,4.32
2022-09-23T08:54:04.563Z,3.75
2022-09-23T08:56:39.955Z,3.65
2022-09-23T08:59:14.796Z,4.22
2022-09-23T09:01:47.810Z,3.60
2022-09-23T09:04:20.845Z,3.88
2022-09-23T09:07:03.393Z,3.53
2022-09-23T09:09:47.513Z,4.50
2022-09-23T09:12:21.979Z,4.50
2022-09-23T09:14:59.776Z,3.70
2022-09-23T09:17:38.317Z,3.80
2022-09-23T09:20:23.210Z,3.97
2022-09-23T09:23:00.118Z,4.20
2022-09-23T09:25:42.609Z,3.67
2022-09-23T09:28:22.785Z,3.90
2022-09-23T09:30:58.736Z,4.32
2022-09-23T09:33:33.920Z,3.85
2022-09-23T09:36:12.879Z,4.00
2022-09-23T09:38:42.583Z,3.50
2022-09-23T09:41:17.843Z,3.67
2022-09-23T09:43:53.432Z,4.18
2022-09-23T09:46:48.237Z,7.60
2022-09-23T09:49:28.498Z,4.82
2022-09-23T09:52:22.900Z,3.63
2022-09-23T09:54:55.815Z,4.13
2022-09-23T09:57:39.551Z,4.03
2022-09-23T10:03:22.746Z,4.18
2022-09-23T10:05:57.349Z,4.32
2022-09-23T10:08:31.865Z,4.05
2022-09-23T10:11:08.096Z,4.30
2022-09-23T10:13:37.953Z,4.43
2022-09-23T10:16:11.645Z,4.10
2022-09-23T10:18:53.442Z,4.10
2022-09-23T10:21:27.961Z,4.50
2022-09-23T10:24:01.585Z,4.68
2022-09-23T10:26:33.829Z,4.50
2022-09-23T10:29:05.840Z,4.65
2022-09-23T10:31:38.824Z,4.53
2022-09-23T10:34:25.838Z,3.90
2022-09-23T10:36:58.308Z,4.30
2022-09-23T10:39:40.593Z,4.13
2022-09-23T10:42:36.712Z,3.92
2022-09-23T10:45:33.060Z,4.30
2022-09-23T10:48:13.016Z,4.28
2022-09-23T10:50:47.532Z,4.60
2022-09-23T10:53:22.879Z,3.92
2022-09-23T10:56:12.460Z,4.07
2022-09-23T10:59:19.447Z,4.40
2022-09-23T11:02:02.089Z,4.32
2022-09-23T11:05:04.780Z,4.25
2022-09-23T11:07:44.372Z,4.40
2022-09-23T11:10:50.542Z,4.20
2022-09-23T11:13:29.061Z,4.30
2022-09-23T11:16:05.473Z,4.03
2022-09-23T11:18:51.882Z,3.53
2022-09-23T11:21:52.878Z,3.20
2022-09-23T11:25:01.667Z,3.00
2022-09-23T11:27:45.768Z,3.75
2022-09-23T11:30:17.384Z,4.22
2022-09-23T11:33:14.123Z,3.65
2022-09-23T11:35:50.352Z,3.50
2022-09-23T11:38:25.895Z,3.72
2022-09-23T11:41:02.451Z,3.72
2022-09-23T11:43:38.505Z,3.85
2022-09-23T11:46:14.471Z,3.72
2022-09-23T11:48:49.061Z,3.88
2022-09-23T11:51:27.047Z,3.63
2022-09-23T11:54:01.903Z,3.42
2022-09-23T11:56:42.930Z,3.50
2022-09-23T11:59:31.485Z,3.35
2022-09-23T12:02:20.829Z,3.55
2022-09-23T12:05:01.444Z,3.10
2022-09-23T12:07:43.502Z,3.13
2022-09-23T12:10:14.073Z,3.30
2022-09-23T12:12:56.805Z,3.97
2022-09-23T12:15:39.479Z,3.58
2022-09-23T12:18:35.694Z,4.15
2022-09-23T12:21:49.088Z,3.70
2022-09-23T12:24:40.095Z,3.85
2022-09-23T12:27:14.318Z,3.20
2022-09-23T12:29:47.085Z,3.95
2022-09-23T12:32:21.221Z,4.10
2022-09-23T12:34:52.923Z,3.63
2022-09-23T12:37:28.881Z,3.47
2022-09-23T12:40:04.915Z,3.10
2022-09-23T12:42:35.002Z,2.80
2022-09-23T12:45:35.170Z,3.28
2022-09-23T12:48:29.027Z,2.70
2022-09-23T12:51:09.124Z,2.38
2022-09-23T12:54:16.869Z,2.28
2022-09-23T12:57:05.039Z,2.10
2022-09-23T12:59:50.807Z,2.08
2022-09-23T13:02:31.229Z,2.85
2022-09-23T13:05:34.209Z,3.28
2022-09-23T13:08:10.174Z,2.90
2022-09-23T13:10:46.115Z,2.72
2022-09-23T13:13:24.779Z,2.60
2022-09-23T13:15:55.918Z,2.80
2022-09-23T13:18:27.836Z,2.88
2022-09-23T13:21:00.144Z,3.00
2022-09-23T13:23:31.302Z,3.58
2022-09-23T13:26:04.487Z,3.30
2022-09-23T13:28:37.171Z,3.40
2022-09-23T13:31:09.197Z,5.25
2022-09-23T13:33:45.241Z,2.92
2022-09-23T13:36:19.613Z,4.15
2022-09-23T13:38:49.912Z,3.25
2022-09-23T13:41:22.518Z,3.72
2022-09-23T13:43:58.768Z,3.63
2022-09-23T13:46:31.346Z,3.85
2022-09-23T13:49:02.769Z,3.85
2022-09-23T13:51:37.520Z,3.78
2022-09-23T13:54:08.174Z,3.97
2022-09-23T13:56:37.979Z,3.72
2022-09-23T13:59:26.216Z,3.90
2022-09-23T14:02:06.021Z,4.47
2022-09-23T14:04:36.092Z,4.22
2022-09-23T14:07:10.722Z,3.92
2022-09-23T14:09:44.105Z,4.32
2022-09-23T14:12:14.292Z,4.03
2022-09-23T14:14:46.543Z,4.05
2022-09-23T14:17:19.900Z,3.92
2022-09-23T14:19:50.351Z,3.30
2022-09-23T14:22:31.071Z,3.65
2022-09-23T14:25:03.367Z,4.07
2022-09-23T14:27:36.177Z,4.18
2022-09-23T14:30:07.830Z,3.50
2022-09-23T14:32:37.796Z,3.90
2022-09-23T14:35:18.687Z,3.42
2022-09-23T14:38:06.003Z,3.38
2022-09-23T14:40:37.562Z,4.05
2022-09-23T14:43:16.388Z,3.92
2022-09-23T14:45:50.540Z,3.40
2022-09-23T14:48:25.335Z,3.20
2022-09-23T14:50:59.829Z,3.67
2022-09-23T14:53:40.684Z,3.53
2022-09-23T14:56:22.725Z,2.70
2022-09-23T14:58:55.657Z,3.58
2022-09-23T15:01:43.535Z,3.78
2022-09-23T15:04:16.909Z,3.15
2022-09-23T15:06:52.468Z,3.45
2022-09-23T15:09:29.272Z,3.20
2022-09-23T15:12:04.420Z,3.50
2022-09-23T15:14:40.713Z,3.15
2022-09-23T15:17:32.479Z,3.00
2022-09-23T15:20:05.485Z,2.90
2022-09-23T15:22:44.724Z,3.22
2022-09-23T15:25:23.083Z,3.63
2022-09-23T15:28:05.886Z,3.15
2022-09-23T15:30:38.468Z,3.80
2022-09-23T15:33:09.512Z,3.53
2022-09-23T15:35:39.486Z,3.42
2022-09-23T15:38:09.262Z,3.20
2022-09-23T15:40:42.102Z,3.65
2022-09-23T15:43:21.649Z,3.33
2022-09-23T15:45:53.634Z,3.65
2022-09-23T15:48:26.950Z,3.42
2022-09-23T15:50:59.147Z,3.80
2022-09-23T15:53:31.501Z,2.90
2022-09-23T15:56:04.400Z,3.05
2022-09-23T15:58:34.370Z,3.20
2022-09-23T16:01:04.302Z,2.75
2022-09-23T16:03:34.515Z,2.90
2022-09-23T16:06:06.209Z,3.15
2022-09-23T16:08:36.074Z,3.13
2022-09-23T16:11:08.781Z,3.60
2022-09-23T16:13:38.580Z,3.55
2022-09-23T16:16:08.821Z,3.53
2022-09-23T16:18:39.261Z,3.20
2022-09-23T16:21:09.428Z,3.22
2022-09-23T16:23:47.169Z,2.80
2022-09-23T16:26:22.275Z,2.70
2022-09-23T16:28:53.676Z,2.90
2022-09-23T16:31:25.321Z,3.65
2022-09-23T16:33:56.548Z,3.70
2022-09-23T16:36:28.869Z,3.60
2022-09-23T16:38:58.895Z,3.50
2022-09-23T16:41:33.781Z,3.65
2022-09-23T16:44:05.436Z,3.50
2022-09-23T16:46:35.688Z,3.42
2022-09-23T16:49:05.923Z,2.97
2022-09-23T16:51:38.069Z,4.05
2022-09-23T16:54:11.739Z,3.92
2022-09-23T16:56:46.383Z,3.70
2022-09-23T16:59:17.765Z,3.85
2022-09-23T17:02:00.103Z,4.15
2022-09-23T17:04:30.281Z,4.30
2022-09-23T17:07:00.970Z,4.43
2022-09-23T17:09:31.844Z,5.25
2022-09-23T17:12:11.803Z,4.15
2022-09-23T17:14:41.570Z,5.30
2022-09-23T17:17:11.281Z,4.90
2022-09-23T17:19:41.433Z,4.53
2022-09-23T17:22:11.225Z,5.25
2022-09-23T17:24:40.990Z,5.45
2022-09-23T17:27:13.552Z,5.85
2022-09-23T17:29:44.448Z,7.20
2022-09-23T17:32:14.172Z,6.45
2022-09-23T17:34:43.989Z,6.40
2022-09-23T17:37:13.698Z,5.35
2022-09-23T17:39:43.401Z,6.25
2022-09-23T17:42:18.166Z,5.50
2022-09-23T17:44:48.126Z,5.38
2022-09-23T17:47:17.903Z,6.60
2022-09-23T17:49:49.921Z,5.75
2022-09-23T17:52:19.849Z,6.43
2022-09-23T17:54:49.591Z,6.15
2022-09-23T17:57:21.923Z,5.75
2022-09-23T17:59:53.698Z,6.18
2022-09-23T18:02:23.580Z,6.20
2022-09-23T18:04:53.522Z,5.97
2022-09-23T18:07:23.255Z,6.07
2022-09-23T18:09:53.096Z,6.95
2022-09-23T18:12:25.415Z,7.15
2022-09-23T18:14:55.133Z,6.88
2022-09-23T18:17:24.837Z,6.75
2022-09-23T18:19:54.932Z,6.07
2022-09-23T18:22:24.664Z,6.57
2022-09-23T18:24:54.403Z,6.30
2022-09-23T18:27:26.760Z,7.18
2022-09-23T18:29:56.498Z,7.80
2022-09-23T18:32:26.275Z,7.97
2022-09-23T18:34:56.089Z,8.13
2022-09-23T18:37:25.969Z,7.90
2022-09-23T18:39:55.725Z,7.57
2022-09-23T18:42:28.054Z,7.03
2022-09-23T18:44:58.465Z,8.07
2022-09-23T18:47:40.681Z,7.85
2022-09-23T18:50:26.757Z,8.02
2022-09-23T18:52:56.462Z,7.82
2022-09-23T18:55:26.422Z,8.57
2022-09-23T18:57:59.703Z,7.68
2022-09-23T19:00:30.051Z,8.00
2022-09-23T19:03:00.663Z,7.70
2022-09-23T19:05:30.505Z,8.63
2022-09-23T19:08:00.321Z,8.80
2022-09-23T19:10:30.290Z,8.80
2022-09-23T19:13:02.592Z,9.95
2022-09-23T19:15:32.345Z,9.32
2022-09-23T19:18:02.072Z,9.88
2022-09-23T19:20:31.941Z,9.10
2022-09-23T19:23:01.659Z,9.80
2022-09-23T19:25:31.376Z,10.23
2022-09-23T19:28:05.466Z,9.20
2022-09-23T19:30:35.568Z,10.05
2022-09-23T19:33:05.665Z,10.10
2022-09-23T19:35:35.941Z,10.43
2022-09-23T19:38:06.819Z,9.70
2022-09-23T19:40:38.252Z,10.07
2022-09-23T19:43:10.593Z,10.13
2022-09-23T19:45:41.014Z,10.18
2022-09-23T19:48:10.816Z,10.02
2022-09-23T19:50:41.570Z,10.05
2022-09-23T19:53:11.364Z,10.02
2022-09-23T19:55:41.434Z,10.20
2022-09-23T19:58:14.391Z,9.63
2022-09-23T20:00:44.143Z,10.45
2022-09-23T20:03:13.866Z,9.98
2022-09-23T20:05:43.574Z,9.18
2022-09-23T20:08:13.294Z,8.98
2022-09-23T20:10:44.373Z,8.43
2022-09-23T20:13:17.385Z,8.75
2022-09-23T20:15:48.355Z,8.77
2022-09-23T20:18:18.500Z,8.85
2022-09-23T20:20:55.973Z,8.63
2022-09-23T20:23:25.807Z,9.20
2022-09-23T20:26:11.207Z,8.02
2022-09-23T20:28:43.596Z,7.97
2022-09-23T20:31:14.550Z,8.32
2022-09-23T20:33:46.169Z,8.60
2022-09-23T20:36:17.043Z,8.15
2022-09-23T20:38:46.877Z,7.47
2022-09-23T20:41:17.294Z,8.23
2022-09-23T20:43:50.331Z,9.90
2022-09-23T20:46:22.932Z,9.32
2022-09-23T20:48:54.112Z,9.63
2022-09-23T20:51:23.908Z,10.50
2022-09-23T20:53:54.444Z,11.10
2022-09-23T20:56:25.685Z,11.95
2022-09-23T20:59:01.580Z,11.25
2022-09-23T21:01:31.941Z,9.95
2022-09-23T21:04:03.963Z,9.38
2022-09-23T21:06:33.828Z,10.30
2022-09-23T21:09:03.622Z,9.93
2022-09-23T21:11:33.918Z,10.48
2022-09-23T21:14:06.550Z,10.50
2022-09-23T21:16:36.445Z,11.43
2022-09-23T21:19:07.924Z,10.23
2022-09-23T21:21:39.141Z,11.18
2022-09-23T21:24:40.023Z,9.20
2022-09-23T21:26:59.015Z,9.82
2022-09-23T21:29:31.314Z,10.32
2022-09-23T21:32:01.025Z,10.40
2022-09-23T21:34:32.304Z,10.10
2022-09-23T21:37:02.049Z,10.27
2022-09-23T21:39:31.783Z,9.90
2022-09-23T21:42:01.668Z,10.85
2022-09-23T21:44:34.014Z,10.95
2022-09-23T21:47:03.854Z,11.85
2022-09-23T21:49:33.626Z,11.63
2022-09-23T21:52:03.537Z,10.63
2022-09-23T21:54:33.242Z,10.60
2022-09-23T21:57:03.088Z,10.60
2022-09-23T21:59:35.469Z,11.05
2022-09-23T22:02:05.184Z,11.98
2022-09-23T22:04:35.001Z,12.48
2022-09-23T22:07:04.822Z,12.13
2022-09-23T22:09:34.548Z,12.00
2022-09-23T22:12:12.817Z,12.30
2022-09-23T22:14:46.126Z,13.50
2022-09-23T22:17:16.464Z,13.00
2022-09-23T22:19:47.481Z,13.30
2022-09-23T22:22:19.404Z,12.85
2022-09-23T22:24:50.262Z,12.38
2022-09-23T22:27:21.878Z,11.93
2022-09-23T22:30:06.711Z,12.88
2022-09-23T22:35:25.023Z,12.35
2022-09-23T22:37:54.763Z,12.10
2022-09-23T22:40:24.534Z,12.07
2022-09-23T22:42:54.297Z,12.77
2022-09-23T22:45:27.047Z,12.13
2022-09-23T22:47:56.798Z,11.80
2022-09-23T22:50:26.593Z,12.00
2022-09-23T22:52:56.365Z,11.60
2022-09-23T22:55:26.207Z,13.32
2022-09-23T22:57:55.917Z,11.82
2022-09-23T23:00:29.069Z,12.48
2022-09-23T23:02:59.071Z,12.70
2022-09-23T23:05:28.787Z,12.02
2022-09-23T23:07:59.169Z,12.10
2022-09-23T23:10:28.907Z,11.45
2022-09-23T23:12:59.066Z,11.63
2022-09-23T23:15:31.412Z,12.10
2022-09-23T23:18:01.111Z,11.77
2022-09-23T23:20:31.071Z,12.65
2022-09-23T23:23:03.621Z,12.68
2022-09-23T23:25:33.851Z,13.13
2022-09-23T23:28:05.607Z,12.48
2022-09-23T23:30:38.582Z,12.75
2022-09-23T23:33:08.301Z,12.73
2022-09-23T23:35:38.030Z,13.32
2022-09-23T23:38:10.372Z,13.88
2022-09-23T23:40:40.326Z,13.60
2022-09-23T23:43:10.505Z,12.25
2022-09-23T23:45:43.686Z,12.15
2022-09-23T23:48:13.471Z,11.93
2022-09-23T23:50:43.210Z,12.32
2022-09-23T23:53:13.133Z,12.90
2022-09-23T23:55:42.872Z,11.93
2022-09-23T23:58:12.578Z,12.60
